sensor_id;sensor_type;location;lat;lon;timestamp;temperature;humidity
23755;DHT22;12057;52.042;6.830;2022-11-20T00:04:27;-2.10;99.90
23755;DHT22;12057;52.042;6.830;2022-11-20T00:09:28;-2.10;99.90
23755;DHT22;12057;52.042;6.830;2022-11-20T00:14:29;-2.10;99.90
23755;DHT22;12057;52.042;6.830;2022-11-20T00:19:30;-2.10;99.90
23755;DHT22;12057;52.042;6.830;2022-11-20T00:24:31;-2.20;99.90
23755;DHT22;12057;52.042;6.830;2022-11-20T00:29:32;-2.40;99.90
23755;DHT22;12057;52.042;6.830;2022-11-20T00:34:37;-2.30;99.90
23755;DHT22;12057;52.042;6.830;2022-11-20T00:39:38;-2.30;99.90
23755;DHT22;12057;52.042;6.830;2022-11-20T00:44:39;-2.30;99.90
23755;DHT22;12057;52.042;6.830;2022-11-20T00:49:40;-2.40;99.90
23755;DHT22;12057;52.042;6.830;2022-11-20T00:54:41;-2.50;99.90
23755;DHT22;12057;52.042;6.830;2022-11-20T00:59:41;-2.40;99.90
23755;DHT22;12057;52.042;6.830;2022-11-20T01:04:42;-2.40;99.90
23755;DHT22;12057;52.042;6.830;2022-11-20T01:09:43;-2.40;99.90
23755;DHT22;12057;52.042;6.830;2022-11-20T01:14:44;-2.40;99.90
23755;DHT22;12057;52.042;6.830;2022-11-20T01:19:48;-2.50;99.90
23755;DHT22;12057;52.042;6.830;2022-11-20T01:24:49;-2.50;99.90
23755;DHT22;12057;52.042;6.830;2022-11-20T01:29:50;-2.60;99.90
23755;DHT22;12057;52.042;6.830;2022-11-20T01:34:50;-2.80;99.90
23755;DHT22;12057;52.042;6.830;2022-11-20T01:39:51;-2.80;99.90
23755;DHT22;12057;52.042;6.830;2022-11-20T01:44:55;-2.70;99.90
23755;DHT22;12057;52.042;6.830;2022-11-20T01:50:02;-2.80;99.90
23755;DHT22;12057;52.042;6.830;2022-11-20T01:55:36;-2.80;99.90
23755;DHT22;12057;52.042;6.830;2022-11-20T02:00:40;-2.80;99.90
23755;DHT22;12057;52.042;6.830;2022-11-20T02:11:12;-2.90;99.90
23755;DHT22;12057;52.042;6.830;2022-11-20T02:16:27;-2.90;99.90
23755;DHT22;12057;52.042;6.830;2022-11-20T02:31:59;-3.10;99.90
23755;DHT22;12057;52.042;6.830;2022-11-20T02:37:01;-3.00;99.90
23755;DHT22;12057;52.042;6.830;2022-11-20T02:42:02;-3.00;99.90
23755;DHT22;12057;52.042;6.830;2022-11-20T02:47:03;-3.00;99.90
23755;DHT22;12057;52.042;6.830;2022-11-20T02:52:04;-3.00;99.90
23755;DHT22;12057;52.042;6.830;2022-11-20T02:57:05;-3.10;99.90
23755;DHT22;12057;52.042;6.830;2022-11-20T03:02:05;-3.20;99.90
23755;DHT22;12057;52.042;6.830;2022-11-20T03:07:07;-3.10;99.90
23755;DHT22;12057;52.042;6.830;2022-11-20T03:12:08;-3.10;99.90
23755;DHT22;12057;52.042;6.830;2022-11-20T03:17:09;-3.10;99.90
23755;DHT22;12057;52.042;6.830;2022-11-20T03:22:10;-3.20;99.90
23755;DHT22;12057;52.042;6.830;2022-11-20T03:27:10;-3.20;99.90
23755;DHT22;12057;52.042;6.830;2022-11-20T03:32:11;-3.20;99.90
23755;DHT22;12057;52.042;6.830;2022-11-20T03:37:12;-3.30;99.90
23755;DHT22;12057;52.042;6.830;2022-11-20T03:42:13;-3.50;99.90
23755;DHT22;12057;52.042;6.830;2022-11-20T03:47:32;-3.50;99.90
23755;DHT22;12057;52.042;6.830;2022-11-20T03:52:33;-3.50;99.90
23755;DHT22;12057;52.042;6.830;2022-11-20T03:57:37;-3.40;99.90
23755;DHT22;12057;52.042;6.830;2022-11-20T04:02:37;-3.40;99.90
23755;DHT22;12057;52.042;6.830;2022-11-20T04:07:38;-3.50;99.90
23755;DHT22;12057;52.042;6.830;2022-11-20T04:12:42;-3.70;99.90
23755;DHT22;12057;52.042;6.830;2022-11-20T04:17:43;-3.70;99.90
23755;DHT22;12057;52.042;6.830;2022-11-20T04:22:43;-3.70;99.90
23755;DHT22;12057;52.042;6.830;2022-11-20T04:27:44;-3.70;99.90
23755;DHT22;12057;52.042;6.830;2022-11-20T04:32:45;-3.70;99.90
23755;DHT22;12057;52.042;6.830;2022-11-20T04:37:46;-3.60;99.90
23755;DHT22;12057;52.042;6.830;2022-11-20T04:42:46;-3.80;99.90
23755;DHT22;12057;52.042;6.830;2022-11-20T04:47:47;-3.90;99.90
23755;DHT22;12057;52.042;6.830;2022-11-20T04:52:48;-3.90;99.90
23755;DHT22;12057;52.042;6.830;2022-11-20T04:57:50;-3.90;99.90
23755;DHT22;12057;52.042;6.830;2022-11-20T05:02:51;-3.90;99.90
23755;DHT22;12057;52.042;6.830;2022-11-20T05:07:52;-3.90;99.90
23755;DHT22;12057;52.042;6.830;2022-11-20T05:12:53;-3.90;99.90
23755;DHT22;12057;52.042;6.830;2022-11-20T05:17:54;-3.90;99.90
23755;DHT22;12057;52.042;6.830;2022-11-20T05:22:58;-3.90;99.90
23755;DHT22;12057;52.042;6.830;2022-11-20T05:27:58;-4.00;99.90
23755;DHT22;12057;52.042;6.830;2022-11-20T05:32:59;-4.00;99.90
23755;DHT22;12057;52.042;6.830;2022-11-20T05:38:00;-4.00;99.90
23755;DHT22;12057;52.042;6.830;2022-11-20T05:43:01;-4.00;99.90
23755;DHT22;12057;52.042;6.830;2022-11-20T05:48:01;-4.00;99.90
23755;DHT22;12057;52.042;6.830;2022-11-20T05:53:02;-4.00;99.90
23755;DHT22;12057;52.042;6.830;2022-11-20T05:58:03;-4.00;99.90
23755;DHT22;12057;52.042;6.830;2022-11-20T06:03:04;-4.20;99.90
23755;DHT22;12057;52.042;6.830;2022-11-20T06:08:04;-4.20;99.90
23755;DHT22;12057;52.042;6.830;2022-11-20T06:13:05;-4.20;99.90
23755;DHT22;12057;52.042;6.830;2022-11-20T06:18:06;-4.20;99.90
23755;DHT22;12057;52.042;6.830;2022-11-20T06:23:07;-4.40;99.90
23755;DHT22;12057;52.042;6.830;2022-11-20T06:28:07;-4.30;99.90
23755;DHT22;12057;52.042;6.830;2022-11-20T06:33:12;-4.20;99.90
23755;DHT22;12057;52.042;6.830;2022-11-20T06:38:13;-4.30;99.90
23755;DHT22;12057;52.042;6.830;2022-11-20T06:43:13;-4.30;99.90
23755;DHT22;12057;52.042;6.830;2022-11-20T06:48:14;-4.20;99.90
23755;DHT22;12057;52.042;6.830;2022-11-20T06:53:15;-4.20;99.90
23755;DHT22;12057;52.042;6.830;2022-11-20T06:58:17;-4.30;99.90
23755;DHT22;12057;52.042;6.830;2022-11-20T07:03:18;-4.30;99.90
23755;DHT22;12057;52.042;6.830;2022-11-20T07:08:19;-4.20;99.90
23755;DHT22;12057;52.042;6.830;2022-11-20T07:13:19;-4.30;99.90
23755;DHT22;12057;52.042;6.830;2022-11-20T07:18:20;-4.30;99.90
23755;DHT22;12057;52.042;6.830;2022-11-20T07:23:21;-4.30;99.90
23755;DHT22;12057;52.042;6.830;2022-11-20T07:28:22;-4.20;99.90
23755;DHT22;12057;52.042;6.830;2022-11-20T07:33:23;-4.20;99.90
23755;DHT22;12057;52.042;6.830;2022-11-20T07:38:24;-4.10;99.90
23755;DHT22;12057;52.042;6.830;2022-11-20T07:43:25;-4.00;99.90
23755;DHT22;12057;52.042;6.830;2022-11-20T07:48:26;-4.00;99.90
23755;DHT22;12057;52.042;6.830;2022-11-20T07:53:27;-3.90;99.90
23755;DHT22;12057;52.042;6.830;2022-11-20T07:58:29;-3.60;99.90
23755;DHT22;12057;52.042;6.830;2022-11-20T08:03:29;-3.30;99.90
23755;DHT22;12057;52.042;6.830;2022-11-20T08:08:30;-3.00;99.90
23755;DHT22;12057;52.042;6.830;2022-11-20T08:13:31;-2.80;99.90
23755;DHT22;12057;52.042;6.830;2022-11-20T08:18:50;-2.50;99.90
23755;DHT22;12057;52.042;6.830;2022-11-20T08:23:51;-2.40;99.90
23755;DHT22;12057;52.042;6.830;2022-11-20T08:28:55;-2.20;99.90
23755;DHT22;12057;52.042;6.830;2022-11-20T08:33:56;-1.90;99.90
23755;DHT22;12057;52.042;6.830;2022-11-20T08:38:57;-1.70;99.90
23755;DHT22;12057;52.042;6.830;2022-11-20T08:44:03;-1.40;99.90
23755;DHT22;12057;52.042;6.830;2022-11-20T08:49:09;-1.20;99.90
23755;DHT22;12057;52.042;6.830;2022-11-20T08:54:10;-0.90;99.90
23755;DHT22;12057;52.042;6.830;2022-11-20T08:59:10;-0.70;99.90
23755;DHT22;12057;52.042;6.830;2022-11-20T09:04:11;-0.50;99.90
23755;DHT22;12057;52.042;6.830;2022-11-20T09:09:14;-0.30;99.90
23755;DHT22;12057;52.042;6.830;2022-11-20T09:14:15;-0.20;99.90
23755;DHT22;12057;52.042;6.830;2022-11-20T09:19:16;0.00;99.90
23755;DHT22;12057;52.042;6.830;2022-11-20T09:24:16;0.20;99.90
23755;DHT22;12057;52.042;6.830;2022-11-20T09:29:17;0.50;99.90
23755;DHT22;12057;52.042;6.830;2022-11-20T09:34:18;0.70;99.90
23755;DHT22;12057;52.042;6.830;2022-11-20T09:39:19;0.90;99.90
23755;DHT22;12057;52.042;6.830;2022-11-20T09:50:12;1.50;99.90
23755;DHT22;12057;52.042;6.830;2022-11-20T09:55:15;1.70;99.90
23755;DHT22;12057;52.042;6.830;2022-11-20T10:00:17;2.00;99.90
23755;DHT22;12057;52.042;6.830;2022-11-20T10:05:31;2.30;99.90
23755;DHT22;12057;52.042;6.830;2022-11-20T10:10:50;2.50;99.90
23755;DHT22;12057;52.042;6.830;2022-11-20T10:36:43;3.90;99.90
23755;DHT22;12057;52.042;6.830;2022-11-20T10:41:49;4.10;99.90
23755;DHT22;12057;52.042;6.830;2022-11-20T10:46:51;4.10;99.90
23755;DHT22;12057;52.042;6.830;2022-11-20T10:52:03;4.50;99.90
23755;DHT22;12057;52.042;6.830;2022-11-20T11:02:19;4.50;99.90
23755;DHT22;12057;52.042;6.830;2022-11-20T11:07:50;4.30;99.90
23755;DHT22;12057;52.042;6.830;2022-11-20T11:12:51;4.10;99.90
23755;DHT22;12057;52.042;6.830;2022-11-20T11:17:53;4.20;99.90
23755;DHT22;12057;52.042;6.830;2022-11-20T11:22:57;4.20;99.90
23755;DHT22;12057;52.042;6.830;2022-11-20T11:28:04;4.10;99.90
23755;DHT22;12057;52.042;6.830;2022-11-20T11:33:09;4.30;99.90
23755;DHT22;12057;52.042;6.830;2022-11-20T11:38:18;4.20;99.90
23755;DHT22;12057;52.042;6.830;2022-11-20T11:43:22;4.20;99.90
23755;DHT22;12057;52.042;6.830;2022-11-20T11:48:58;4.30;99.90
23755;DHT22;12057;52.042;6.830;2022-11-20T11:54:00;4.30;99.90
23755;DHT22;12057;52.042;6.830;2022-11-20T11:59:05;4.40;99.90
23755;DHT22;12057;52.042;6.830;2022-11-20T12:09:41;4.50;99.90
23755;DHT22;12057;52.042;6.830;2022-11-20T12:14:48;4.20;99.90
23755;DHT22;12057;52.042;6.830;2022-11-20T12:19:51;4.00;99.90
23755;DHT22;12057;52.042;6.830;2022-11-20T12:30:12;4.10;99.90
23755;DHT22;12057;52.042;6.830;2022-11-20T13:01:49;4.00;99.90
23755;DHT22;12057;52.042;6.830;2022-11-20T13:06:51;3.90;99.90
23755;DHT22;12057;52.042;6.830;2022-11-20T13:17:11;3.80;99.90
23755;DHT22;12057;52.042;6.830;2022-11-20T13:22:24;3.80;99.90
23755;DHT22;12057;52.042;6.830;2022-11-20T13:27:26;3.70;99.90
23755;DHT22;12057;52.042;6.830;2022-11-20T13:32:27;3.70;99.90
23755;DHT22;12057;52.042;6.830;2022-11-20T13:37:38;3.70;99.90
23755;DHT22;12057;52.042;6.830;2022-11-20T13:48:24;3.60;99.90
23755;DHT22;12057;52.042;6.830;2022-11-20T13:59:02;3.50;99.90
23755;DHT22;12057;52.042;6.830;2022-11-20T14:04:09;3.60;99.90
23755;DHT22;12057;52.042;6.830;2022-11-20T14:09:26;3.60;99.90
23755;DHT22;12057;52.042;6.830;2022-11-20T14:14:32;3.60;99.90
23755;DHT22;12057;52.042;6.830;2022-11-20T14:19:34;3.50;99.90
23755;DHT22;12057;52.042;6.830;2022-11-20T14:24:36;3.40;99.90
23755;DHT22;12057;52.042;6.830;2022-11-20T14:29:38;3.40;99.90
23755;DHT22;12057;52.042;6.830;2022-11-20T14:34:41;3.40;99.90
23755;DHT22;12057;52.042;6.830;2022-11-20T14:39:50;3.40;99.90
23755;DHT22;12057;52.042;6.830;2022-11-20T14:44:55;3.40;99.90
23755;DHT22;12057;52.042;6.830;2022-11-20T14:49:57;3.40;99.90
23755;DHT22;12057;52.042;6.830;2022-11-20T14:54:59;3.30;99.90
23755;DHT22;12057;52.042;6.830;2022-11-20T15:00:19;3.30;99.90
23755;DHT22;12057;52.042;6.830;2022-11-20T15:05:26;3.30;99.90
23755;DHT22;12057;52.042;6.830;2022-11-20T15:10:51;3.20;99.90
23755;DHT22;12057;52.042;6.830;2022-11-20T15:15:58;3.20;99.90
23755;DHT22;12057;52.042;6.830;2022-11-20T15:21:08;3.10;99.90
23755;DHT22;12057;52.042;6.830;2022-11-20T15:26:12;3.10;99.90
23755;DHT22;12057;52.042;6.830;2022-11-20T15:31:15;3.10;99.90
23755;DHT22;12057;52.042;6.830;2022-11-20T15:36:15;3.10;99.90
23755;DHT22;12057;52.042;6.830;2022-11-20T15:41:16;3.00;99.90
23755;DHT22;12057;52.042;6.830;2022-11-20T15:46:23;3.10;99.90
23755;DHT22;12057;52.042;6.830;2022-11-20T15:51:56;3.10;99.90
23755;DHT22;12057;52.042;6.830;2022-11-20T15:56:57;3.10;99.90
23755;DHT22;12057;52.042;6.830;2022-11-20T16:01:58;3.00;99.90
23755;DHT22;12057;52.042;6.830;2022-11-20T16:06:59;3.00;99.90
23755;DHT22;12057;52.042;6.830;2022-11-20T16:12:00;2.90;99.90
23755;DHT22;12057;52.042;6.830;2022-11-20T16:17:01;2.90;99.90
23755;DHT22;12057;52.042;6.830;2022-11-20T16:22:02;2.90;99.90
23755;DHT22;12057;52.042;6.830;2022-11-20T16:27:03;2.90;99.90
23755;DHT22;12057;52.042;6.830;2022-11-20T16:32:03;2.90;99.90
23755;DHT22;12057;52.042;6.830;2022-11-20T16:37:04;2.90;99.90
23755;DHT22;12057;52.042;6.830;2022-11-20T16:42:05;2.80;99.90
23755;DHT22;12057;52.042;6.830;2022-11-20T16:47:06;2.90;99.90
23755;DHT22;12057;52.042;6.830;2022-11-20T16:52:07;2.90;99.90
23755;DHT22;12057;52.042;6.830;2022-11-20T16:57:07;2.90;99.90
23755;DHT22;12057;52.042;6.830;2022-11-20T17:02:09;2.90;99.90
23755;DHT22;12057;52.042;6.830;2022-11-20T17:07:10;2.90;99.90
23755;DHT22;12057;52.042;6.830;2022-11-20T17:12:11;2.80;99.90
23755;DHT22;12057;52.042;6.830;2022-11-20T17:17:12;2.80;99.90
23755;DHT22;12057;52.042;6.830;2022-11-20T17:22:13;2.80;99.90
23755;DHT22;12057;52.042;6.830;2022-11-20T17:27:14;2.80;99.90
23755;DHT22;12057;52.042;6.830;2022-11-20T17:32:14;2.90;99.90
23755;DHT22;12057;52.042;6.830;2022-11-20T17:37:15;2.80;99.90
23755;DHT22;12057;52.042;6.830;2022-11-20T17:42:16;2.80;99.90
23755;DHT22;12057;52.042;6.830;2022-11-20T17:47:26;2.90;99.90
23755;DHT22;12057;52.042;6.830;2022-11-20T17:52:27;2.80;99.90
23755;DHT22;12057;52.042;6.830;2022-11-20T17:57:27;2.90;99.90
23755;DHT22;12057;52.042;6.830;2022-11-20T18:02:47;2.90;99.90
23755;DHT22;12057;52.042;6.830;2022-11-20T18:07:51;2.90;99.90
23755;DHT22;12057;52.042;6.830;2022-11-20T18:12:52;2.80;99.90
23755;DHT22;12057;52.042;6.830;2022-11-20T18:17:53;2.80;99.90
23755;DHT22;12057;52.042;6.830;2022-11-20T18:22:54;2.80;99.90
23755;DHT22;12057;52.042;6.830;2022-11-20T18:27:55;2.80;99.90
23755;DHT22;12057;52.042;6.830;2022-11-20T18:32:56;2.80;99.90
23755;DHT22;12057;52.042;6.830;2022-11-20T18:37:56;2.80;99.90
23755;DHT22;12057;52.042;6.830;2022-11-20T18:42:57;2.70;99.90
23755;DHT22;12057;52.042;6.830;2022-11-20T18:48:16;2.70;99.90
23755;DHT22;12057;52.042;6.830;2022-11-20T18:53:17;2.60;99.90
23755;DHT22;12057;52.042;6.830;2022-11-20T18:58:18;2.60;99.90
23755;DHT22;12057;52.042;6.830;2022-11-20T19:03:23;2.60;99.90
23755;DHT22;12057;52.042;6.830;2022-11-20T19:08:32;2.60;99.90
23755;DHT22;12057;52.042;6.830;2022-11-20T19:13:38;2.50;99.90
23755;DHT22;12057;52.042;6.830;2022-11-20T19:18:43;2.60;99.90
23755;DHT22;12057;52.042;6.830;2022-11-20T19:23:57;2.50;99.90
23755;DHT22;12057;52.042;6.830;2022-11-20T19:29:09;2.50;99.90
23755;DHT22;12057;52.042;6.830;2022-11-20T19:34:11;2.70;99.90
23755;DHT22;12057;52.042;6.830;2022-11-20T19:39:18;2.50;99.90
23755;DHT22;12057;52.042;6.830;2022-11-20T19:44:20;2.50;99.90
23755;DHT22;12057;52.042;6.830;2022-11-20T19:49:25;2.50;99.90
23755;DHT22;12057;52.042;6.830;2022-11-20T19:54:30;2.50;99.90
23755;DHT22;12057;52.042;6.830;2022-11-20T19:59:42;2.50;99.90
23755;DHT22;12057;52.042;6.830;2022-11-20T20:04:47;2.40;99.90
23755;DHT22;12057;52.042;6.830;2022-11-20T20:09:50;2.40;99.90
23755;DHT22;12057;52.042;6.830;2022-11-20T20:14:54;2.40;99.90
23755;DHT22;12057;52.042;6.830;2022-11-20T20:19:55;2.40;99.90
23755;DHT22;12057;52.042;6.830;2022-11-20T20:25:03;2.40;99.90
23755;DHT22;12057;52.042;6.830;2022-11-20T20:30:11;2.40;99.90
23755;DHT22;12057;52.042;6.830;2022-11-20T20:35:13;2.40;99.90
23755;DHT22;12057;52.042;6.830;2022-11-20T20:40:37;2.40;99.90
23755;DHT22;12057;52.042;6.830;2022-11-20T20:46:06;2.30;99.90
23755;DHT22;12057;52.042;6.830;2022-11-20T20:51:07;2.30;99.90
23755;DHT22;12057;52.042;6.830;2022-11-20T20:56:13;2.40;99.90
23755;DHT22;12057;52.042;6.830;2022-11-20T21:01:20;2.30;99.90
23755;DHT22;12057;52.042;6.830;2022-11-20T21:06:22;2.30;99.90
23755;DHT22;12057;52.042;6.830;2022-11-20T21:11:23;2.30;99.90
23755;DHT22;12057;52.042;6.830;2022-11-20T21:16:31;2.20;99.90
23755;DHT22;12057;52.042;6.830;2022-11-20T21:21:40;2.20;99.90
23755;DHT22;12057;52.042;6.830;2022-11-20T21:27:04;2.20;99.90
23755;DHT22;12057;52.042;6.830;2022-11-20T21:32:10;2.20;99.90
23755;DHT22;12057;52.042;6.830;2022-11-20T21:37:12;2.20;99.90
23755;DHT22;12057;52.042;6.830;2022-11-20T21:42:13;2.10;99.90
23755;DHT22;12057;52.042;6.830;2022-11-20T21:47:16;2.10;99.90
23755;DHT22;12057;52.042;6.830;2022-11-20T21:52:24;2.10;99.90
23755;DHT22;12057;52.042;6.830;2022-11-20T21:57:25;2.10;99.90
23755;DHT22;12057;52.042;6.830;2022-11-20T22:02:30;2.10;99.90
23755;DHT22;12057;52.042;6.830;2022-11-20T22:07:33;2.20;99.90
23755;DHT22;12057;52.042;6.830;2022-11-20T22:12:40;2.20;99.90
23755;DHT22;12057;52.042;6.830;2022-11-20T22:17:48;2.10;99.90
23755;DHT22;12057;52.042;6.830;2022-11-20T22:23:16;2.10;99.90
23755;DHT22;12057;52.042;6.830;2022-11-20T22:28:21;2.10;99.90
23755;DHT22;12057;52.042;6.830;2022-11-20T22:33:25;2.10;99.90
23755;DHT22;12057;52.042;6.830;2022-11-20T22:38:31;2.20;99.90
23755;DHT22;12057;52.042;6.830;2022-11-20T22:43:36;2.10;99.90
23755;DHT22;12057;52.042;6.830;2022-11-20T22:48:50;2.10;99.90
23755;DHT22;12057;52.042;6.830;2022-11-20T22:53:56;2.20;99.90
23755;DHT22;12057;52.042;6.830;2022-11-20T22:59:03;2.10;99.90
23755;DHT22;12057;52.042;6.830;2022-11-20T23:04:06;2.10;99.90
23755;DHT22;12057;52.042;6.830;2022-11-20T23:09:08;2.20;99.90
23755;DHT22;12057;52.042;6.830;2022-11-20T23:14:13;2.20;99.90
23755;DHT22;12057;52.042;6.830;2022-11-20T23:19:14;2.10;99.90
23755;DHT22;12057;52.042;6.830;2022-11-20T23:24:15;2.10;99.90
23755;DHT22;12057;52.042;6.830;2022-11-20T23:29:16;2.10;99.90
23755;DHT22;12057;52.042;6.830;2022-11-20T23:34:17;2.00;99.90
23755;DHT22;12057;52.042;6.830;2022-11-20T23:39:18;2.00;99.90
23755;DHT22;12057;52.042;6.830;2022-11-20T23:44:18;1.90;99.90
23755;DHT22;12057;52.042;6.830;2022-11-20T23:49:19;2.00;99.90
23755;DHT22;12057;52.042;6.830;2022-11-20T23:54:20;2.00;99.90
23755;DHT22;12057;52.042;6.830;2022-11-20T23:59:20;2.10;99.90
